Terminal Aerodrome Forecast
Issued by NWS Charleston, WV

Current Version | Previous Version | Text Only | Print | Product List | Glossary On
Versions: 1 2 3 4 5 6 7 8 9 10 11 12 13 14 15 16 17 18 19 20 21 22 23 24 25 26 27
000
FTUS41 KRLX 211100
TAFBKW
TAF
KBKW 211131Z 2112/2212 19003KT P6SM FEW035
     FM211500 26008G17KT P6SM BKN025
     FM211700 26010G20KT P6SM VCTS BKN025CB
     FM211800 26011G22KT 5SM TSRA BR BKN025CB
     FM212100 24013G26KT 5SM TSRA BR BKN015CB
     FM212300 26011G22KT P6SM VCTS BKN025CB
     FM220200 31008G15KT P6SM VCTS BKN025CB
     FM220300 32007KT P6SM BKN025
     FM220600 30005KT P6SM BKN035
     FM221100 31005KT 6SM BR BKN008=

USA.gov is the U.S. government's official web portal to all federal, state and local government web resources and services.